Time;durP1;ratioP1;P1;durP2;ratioP2;P2;SDS_P1;SDS_P2;PMS_P1;PMS_P2;Temp;Humidity;BMP_temperature;BMP_pressure;BME280_temperature;BME280_humidity;BME280_pressure;Samples;Min_cycle;Max_cycle;Signal;HPM_P1;HPM_P2
2024/04/16 00:01:07;;;;;;;3.83;2.70;;;5.80;89.60;;;;;;6783021;26;20515;-63
2024/04/16 00:04:09;;;;;;;5.30;3.20;;;5.80;89.90;;;;;;6778646;26;20510;-62
2024/04/16 00:07:11;;;;;;;6.13;2.83;;;5.80;89.80;;;;;;6777612;26;20475;-61
2024/04/16 00:10:13;;;;;;;6.73;2.67;;;5.80;89.70;;;;;;6776828;26;20467;-62
2024/04/16 00:13:15;;;;;;;3.90;2.10;;;5.90;89.40;;;;;;6776699;26;20436;-62
2024/04/16 00:16:17;;;;;;;3.17;2.60;;;5.90;88.80;;;;;;6777031;26;20451;-63
2024/04/16 00:19:19;;;;;;;7.30;2.70;;;5.90;88.40;;;;;;6777269;26;20456;-63
2024/04/16 00:22:21;;;;;;;5.20;2.20;;;5.90;87.20;;;;;;6777004;26;20455;-61
2024/04/16 00:25:23;;;;;;;5.00;2.00;;;5.90;86.80;;;;;;6776949;26;20451;-62
2024/04/16 00:28:25;;;;;;;4.53;2.17;;;5.80;86.50;;;;;;6776993;26;20459;-62
2024/04/16 00:31:27;;;;;;;2.83;1.50;;;5.80;86.00;;;;;;6776905;26;20451;-62
2024/04/16 00:34:29;;;;;;;4.23;2.00;;;5.80;85.90;;;;;;6776559;26;20939;-63
2024/04/16 00:37:31;;;;;;;3.40;1.90;;;5.90;85.30;;;;;;6775513;26;20927;-62
2024/04/16 00:40:33;;;;;;;5.83;2.00;;;6.00;85.40;;;;;;6776634;26;20444;-60
2024/04/16 00:43:35;;;;;;;4.93;1.50;;;6.00;85.50;;;;;;6776385;26;20557;-61
2024/04/16 00:46:37;;;;;;;4.00;1.73;;;6.10;85.00;;;;;;6776572;26;20855;-62
2024/04/16 00:49:40;;;;;;;4.57;2.10;;;6.20;84.60;;;;;;6779855;26;20500;-61
2024/04/16 00:52:42;;;;;;;9.47;2.60;;;6.20;84.80;;;;;;6779542;26;20883;-62
2024/04/16 00:55:45;;;;;;;3.93;1.70;;;6.20;85.70;;;;;;6778548;26;20463;-65
2024/04/16 00:58:47;;;;;;;6.37;1.80;;;6.20;86.40;;;;;;6778378;26;20610;-64
2024/04/16 01:01:49;;;;;;;9.60;2.10;;;6.00;87.00;;;;;;6780231;26;20471;-63
2024/04/16 01:04:51;;;;;;;4.20;1.87;;;6.00;87.80;;;;;;6777413;26;20504;-62
2024/04/16 01:07:53;;;;;;;4.13;1.77;;;6.00;87.40;;;;;;6777420;26;20448;-64
2024/04/16 01:10:56;;;;;;;5.60;2.33;;;5.90;87.50;;;;;;6779106;26;20448;-62
2024/04/16 01:13:59;;;;;;;11.63;2.30;;;5.90;87.90;;;;;;6778115;26;20558;-62
2024/04/16 01:17:01;;;;;;;3.80;2.20;;;5.90;88.00;;;;;;6776555;26;20464;-62
2024/04/16 01:20:03;;;;;;;6.90;1.97;;;5.90;88.30;;;;;;6779348;26;20553;-62
2024/04/16 01:23:05;;;;;;;6.67;2.27;;;5.90;88.00;;;;;;6778808;26;20513;-61
2024/04/16 01:26:07;;;;;;;6.63;1.80;;;5.90;87.70;;;;;;6779245;26;20455;-61
2024/04/16 01:29:09;;;;;;;3.73;1.70;;;5.90;87.50;;;;;;6774280;26;20463;-62
2024/04/16 01:32:11;;;;;;;4.03;1.33;;;5.90;86.70;;;;;;6775735;26;20451;-62
2024/04/16 01:35:13;;;;;;;2.60;1.17;;;5.90;85.10;;;;;;6775890;26;20496;-62
2024/04/16 01:38:14;;;;;;;3.50;1.30;;;5.90;84.00;;;;;;6774987;26;20451;-63
2024/04/16 01:41:16;;;;;;;2.33;1.07;;;5.90;83.20;;;;;;6775179;26;20504;-63
2024/04/16 01:44:18;;;;;;;3.50;1.10;;;5.80;82.80;;;;;;6774944;26;20946;-63
2024/04/16 01:47:20;;;;;;;3.07;1.20;;;5.80;82.90;;;;;;6775186;26;20431;-62
2024/04/16 01:50:22;;;;;;;1.73;0.80;;;5.70;82.00;;;;;;6775972;26;20508;-63
2024/04/16 01:53:24;;;;;;;1.30;0.80;;;5.70;82.50;;;;;;6779355;26;20742;-64
2024/04/16 01:56:26;;;;;;;1.13;0.80;;;5.60;82.80;;;;;;6775648;26;20491;-61
2024/04/16 01:59:28;;;;;;;1.33;0.97;;;5.50;83.70;;;;;;6774588;26;20471;-61
2024/04/16 02:02:31;;;;;;;1.20;1.10;;;5.40;84.70;;;;;;6774607;26;20456;-61
2024/04/16 02:05:36;;;;;;;1.30;1.20;;;5.30;85.20;;;;;;6774665;26;20444;-61
2024/04/16 02:08:37;;;;;;;0.80;0.70;;;5.20;86.00;;;;;;6774659;26;20676;-61
2024/04/16 02:11:39;;;;;;;1.23;0.80;;;5.20;86.60;;;;;;6774061;26;20506;-61
2024/04/16 02:14:41;;;;;;;1.33;0.90;;;5.10;86.80;;;;;;6772075;26;21035;-61
2024/04/16 02:17:43;;;;;;;2.73;0.87;;;5.00;87.30;;;;;;6772000;26;20452;-63
2024/04/16 02:20:45;;;;;;;2.10;0.77;;;5.00;87.00;;;;;;6773713;26;20454;-62
2024/04/16 02:23:48;;;;;;;1.10;0.80;;;5.00;86.80;;;;;;6773892;26;20456;-62
2024/04/16 02:26:49;;;;;;;2.80;0.83;;;5.00;86.80;;;;;;6773870;26;20466;-62
2024/04/16 02:29:51;;;;;;;1.00;0.77;;;5.00;86.80;;;;;;6776398;26;20802;-62
2024/04/16 02:32:54;;;;;;;2.17;0.77;;;4.90;87.50;;;;;;6778274;26;20462;-62
2024/04/16 02:36:00;;;;;;;1.60;1.10;;;4.90;88.20;;;;;;6778820;26;20463;-62
2024/04/16 02:39:02;;;;;;;1.27;0.90;;;4.90;88.50;;;;;;6778609;26;20988;-64
2024/04/16 02:42:04;;;;;;;1.43;0.90;;;4.90;89.00;;;;;;6778491;26;20553;-62
2024/04/16 02:45:06;;;;;;;1.43;0.80;;;4.90;89.00;;;;;;6776207;26;20490;-63
2024/04/16 02:48:07;;;;;;;2.97;0.70;;;4.90;89.00;;;;;;6778196;26;20569;-64
2024/04/16 02:51:13;;;;;;;4.00;0.87;;;4.80;89.00;;;;;;6777901;26;20503;-63
2024/04/16 02:54:15;;;;;;;1.63;0.80;;;4.80;89.30;;;;;;6776302;26;20596;-63
2024/04/16 02:57:17;;;;;;;1.67;1.40;;;4.80;89.10;;;;;;6778007;26;20467;-63
2024/04/16 03:00:19;;;;;;;2.83;0.77;;;4.70;88.70;;;;;;6777931;26;20467;-63
2024/04/16 03:03:20;;;;;;;2.13;0.80;;;4.60;88.60;;;;;;6777747;26;20440;-63
2024/04/16 03:06:22;;;;;;;2.90;1.03;;;4.50;89.00;;;;;;6777684;26;20459;-63
2024/04/16 03:09:24;;;;;;;2.43;0.80;;;4.40;88.70;;;;;;6777565;26;20465;-65
2024/04/16 03:12:26;;;;;;;3.60;1.10;;;4.40;88.20;;;;;;6777605;26;20793;-63
2024/04/16 03:15:28;;;;;;;2.57;0.97;;;4.40;88.10;;;;;;6777230;26;20463;-65
2024/04/16 03:18:30;;;;;;;1.87;0.90;;;4.30;88.20;;;;;;6776085;26;20544;-62
2024/04/16 03:21:32;;;;;;;1.10;0.90;;;4.30;88.50;;;;;;6777522;26;20442;-61
2024/04/16 03:24:33;;;;;;;2.17;1.00;;;4.20;88.80;;;;;;6776103;26;21016;-62
2024/04/16 03:27:35;;;;;;;4.97;1.03;;;4.20;88.80;;;;;;6777141;26;20540;-62
2024/04/16 03:30:37;;;;;;;1.13;1.00;;;4.10;89.10;;;;;;6782163;26;20449;-62
2024/04/16 03:33:39;;;;;;;1.70;0.80;;;4.00;89.40;;;;;;6783720;26;20977;-61
2024/04/16 03:36:40;;;;;;;2.80;1.03;;;4.00;89.50;;;;;;6784419;26;20497;-63
2024/04/16 03:39:42;;;;;;;2.23;0.83;;;4.00;89.80;;;;;;6783192;26;20518;-63
2024/04/16 03:42:44;;;;;;;1.07;0.90;;;3.90;90.20;;;;;;6777789;26;20457;-62
2024/04/16 03:45:56;;;;;;;4.40;1.40;;;3.90;90.40;;;;;;6776848;26;20449;-62
2024/04/16 03:48:57;;;;;;;1.77;1.30;;;3.90;90.80;;;;;;6777278;26;20499;-62
2024/04/16 03:51:59;;;;;;;3.63;1.10;;;3.80;91.00;;;;;;6777256;26;20819;-63
2024/04/16 03:55:01;;;;;;;1.40;0.93;;;3.80;91.30;;;;;;6776821;26;20445;-63
2024/04/16 03:58:03;;;;;;;3.03;1.00;;;3.80;91.20;;;;;;6777132;26;20456;-64
2024/04/16 04:01:07;;;;;;;1.40;0.80;;;3.70;91.40;;;;;;6776965;26;20551;-63
2024/04/16 04:04:11;;;;;;;2.80;0.97;;;3.70;91.60;;;;;;6783139;26;20861;-64
2024/04/16 04:07:13;;;;;;;1.57;1.10;;;3.70;91.60;;;;;;6783689;26;20502;-64
2024/04/16 04:10:16;;;;;;;2.07;1.30;;;3.80;91.70;;;;;;6783121;26;20457;-63
2024/04/16 04:13:19;;;;;;;2.67;1.00;;;3.80;91.60;;;;;;6781738;26;20761;-63
2024/04/16 04:16:20;;;;;;;2.33;1.97;;;3.90;91.70;;;;;;6784278;26;20501;-63
2024/04/16 04:19:22;;;;;;;4.00;1.50;;;3.90;91.70;;;;;;6780987;26;20544;-63
2024/04/16 04:22:24;;;;;;;2.97;1.33;;;3.90;91.70;;;;;;6779654;26;20518;-65
2024/04/16 04:25:26;;;;;;;3.87;1.53;;;3.90;91.60;;;;;;6782448;26;20548;-62
2024/04/16 04:28:28;;;;;;;3.57;1.40;;;4.00;91.80;;;;;;6783775;26;20450;-63
2024/04/16 04:31:30;;;;;;;1.30;1.10;;;4.00;92.00;;;;;;6782497;26;20454;-62
2024/04/16 04:34:32;;;;;;;2.70;1.37;;;4.10;91.70;;;;;;6776462;26;20455;-65
2024/04/16 04:37:33;;;;;;;4.30;1.40;;;4.20;91.70;;;;;;6775915;26;20518;-64
2024/04/16 04:40:36;;;;;;;3.90;1.90;;;4.20;91.70;;;;;;6773226;26;20520;-64
2024/04/16 04:43:38;;;;;;;3.63;1.67;;;4.40;91.70;;;;;;6775740;26;20522;-61
2024/04/16 04:46:39;;;;;;;4.27;1.80;;;4.50;91.30;;;;;;6776453;26;20458;-61
2024/04/16 04:49:41;;;;;;;9.67;1.80;;;4.50;91.00;;;;;;6776680;26;20954;-62
2024/04/16 04:52:43;;;;;;;3.23;1.83;;;4.60;90.50;;;;;;6774902;26;20454;-62
2024/04/16 04:55:45;;;;;;;7.53;1.90;;;4.60;90.40;;;;;;6776317;26;20451;-62
2024/04/16 04:58:47;;;;;;;5.57;2.20;;;4.60;90.10;;;;;;6776264;26;20439;-62
2024/04/16 05:01:49;;;;;;;8.20;1.70;;;4.70;89.70;;;;;;6775924;26;21028;-63
2024/04/16 05:04:51;;;;;;;5.10;1.60;;;4.60;89.50;;;;;;6776097;26;20491;-64
2024/04/16 05:07:53;;;;;;;5.10;2.20;;;4.60;89.40;;;;;;6773786;26;20969;-64
2024/04/16 05:10:54;;;;;;;5.60;2.27;;;4.70;89.60;;;;;;6773896;26;20462;-64
2024/04/16 05:13:56;;;;;;;5.67;1.47;;;4.70;90.00;;;;;;6775843;26;20562;-63
2024/04/16 05:16:58;;;;;;;7.30;1.83;;;4.80;90.00;;;;;;6776671;26;20459;-63
2024/04/16 05:20:00;;;;;;;4.10;1.77;;;5.00;89.90;;;;;;6775354;26;20498;-61
2024/04/16 05:23:02;;;;;;;5.27;1.80;;;5.20;89.10;;;;;;6775141;26;20524;-62
2024/04/16 05:26:04;;;;;;;4.47;1.97;;;5.40;87.90;;;;;;6774941;26;20777;-62
2024/04/16 05:29:06;;;;;;;8.70;2.40;;;5.60;87.40;;;;;;6775663;26;20448;-62
2024/04/16 05:32:11;;;;;;;5.83;1.50;;;5.90;85.50;;;;;;6780394;26;20789;-62
2024/04/16 05:35:12;;;;;;;8.10;1.80;;;6.10;84.20;;;;;;6775042;26;20531;-63
2024/04/16 05:38:19;;;;;;;7.30;2.17;;;6.30;83.30;;;;;;6775341;26;20507;-61
2024/04/16 05:41:20;;;;;;;5.33;1.73;;;6.50;82.40;;;;;;6774826;26;20451;-62
2024/04/16 05:44:22;;;;;;;5.43;2.07;;;6.50;81.70;;;;;;6775670;26;20853;-63
2024/04/16 05:47:24;;;;;;;8.50;2.67;;;6.50;81.70;;;;;;6775366;26;21050;-63
2024/04/16 05:50:26;;;;;;;5.27;2.07;;;6.50;81.80;;;;;;6774951;26;20498;-63
2024/04/16 05:53:28;;;;;;;8.50;3.00;;;6.40;80.90;;;;;;6775678;26;20520;-65
2024/04/16 05:56:30;;;;;;;7.70;2.80;;;6.40;81.90;;;;;;6775306;26;20486;-64
2024/04/16 05:59:32;;;;;;;7.53;3.23;;;6.30;82.30;;;;;;6776086;26;20467;-63
2024/04/16 06:02:33;;;;;;;8.27;3.50;;;6.30;82.70;;;;;;6778239;26;20503;-65
2024/04/16 06:05:35;;;;;;;5.40;3.10;;;6.30;82.20;;;;;;6784236;26;20919;-63
2024/04/16 06:08:37;;;;;;;7.43;3.63;;;6.30;82.60;;;;;;6791869;26;20538;-63
2024/04/16 06:11:39;;;;;;;6.97;3.60;;;6.20;83.10;;;;;;6796913;26;20507;-63
2024/04/16 06:14:41;;;;;;;9.63;4.23;;;6.30;83.10;;;;;;6789376;26;20450;-63
2024/04/16 06:17:43;;;;;;;8.73;3.70;;;6.30;82.60;;;;;;6785340;26;20540;-61
2024/04/16 06:20:45;;;;;;;11.57;3.60;;;6.30;82.70;;;;;;6783653;26;20498;-61
2024/04/16 06:23:47;;;;;;;8.93;3.70;;;6.30;82.60;;;;;;6781805;26;20570;-61
2024/04/16 06:26:49;;;;;;;7.00;2.97;;;6.40;82.70;;;;;;6784717;26;20447;-63
2024/04/16 06:29:50;;;;;;;5.10;3.30;;;6.40;82.60;;;;;;6783905;26;20495;-61
2024/04/16 06:32:52;;;;;;;5.50;3.00;;;6.50;82.30;;;;;;6787105;26;20467;-61
2024/04/16 06:35:54;;;;;;;4.97;3.13;;;6.60;81.70;;;;;;6782759;26;20524;-62
2024/04/16 06:38:56;;;;;;;9.33;3.50;;;6.70;81.40;;;;;;6783127;26;20440;-62
2024/04/16 06:42:00;;;;;;;8.10;3.70;;;6.80;81.30;;;;;;6783325;26;20483;-62
2024/04/16 06:45:06;;;;;;;5.73;3.80;;;6.80;80.30;;;;;;6783454;26;20459;-63
2024/04/16 06:48:08;;;;;;;7.63;3.50;;;6.80;80.80;;;;;;6782670;26;20463;-62
2024/04/16 06:51:10;;;;;;;7.00;3.27;;;6.90;80.70;;;;;;6783761;26;20454;-62
2024/04/16 06:54:12;;;;;;;8.50;3.03;;;6.90;80.40;;;;;;6782511;26;20561;-63
2024/04/16 06:57:14;;;;;;;7.30;3.70;;;6.90;80.10;;;;;;6782435;26;20467;-62
2024/04/16 07:00:16;;;;;;;10.70;3.40;;;6.90;80.80;;;;;;6782882;26;20503;-62
2024/04/16 07:03:18;;;;;;;5.33;2.50;;;7.00;80.70;;;;;;6788531;26;20447;-63
2024/04/16 07:06:19;;;;;;;7.03;2.60;;;7.10;80.00;;;;;;6791187;26;20503;-63
2024/04/16 07:09:21;;;;;;;8.30;3.37;;;7.20;79.50;;;;;;6783504;26;20451;-63
2024/04/16 07:12:23;;;;;;;9.73;3.27;;;7.30;79.90;;;;;;6782592;26;20491;-63
2024/04/16 07:15:25;;;;;;;4.93;2.40;;;7.60;78.10;;;;;;6778964;26;20443;-65
2024/04/16 07:18:27;;;;;;;6.47;2.90;;;7.90;79.20;;;;;;6778328;26;20444;-61
2024/04/16 07:21:29;;;;;;;7.00;2.67;;;8.30;76.80;;;;;;6777015;26;20496;-63
2024/04/16 07:24:31;;;;;;;5.67;2.10;;;8.40;75.80;;;;;;6777373;26;20530;-61
2024/04/16 07:27:33;;;;;;;6.00;2.07;;;8.50;76.40;;;;;;6777840;26;20514;-62
2024/04/16 07:30:34;;;;;;;6.63;1.77;;;8.50;75.60;;;;;;6779144;26;20526;-63
2024/04/16 07:33:36;;;;;;;3.83;1.50;;;8.20;76.20;;;;;;6782236;26;20455;-61
2024/04/16 07:36:39;;;;;;;3.53;1.63;;;8.00;77.20;;;;;;6783411;26;20455;-64
2024/04/16 07:39:41;;;;;;;5.57;1.60;;;7.90;77.90;;;;;;6778971;26;20463;-65
2024/04/16 07:42:43;;;;;;;3.50;1.70;;;8.10;77.90;;;;;;6776490;26;20867;-66
2024/04/16 07:45:45;;;;;;;4.90;1.73;;;8.30;76.00;;;;;;6777433;26;20503;-66
2024/04/16 07:48:47;;;;;;;4.83;1.87;;;8.30;76.20;;;;;;6778459;26;20504;-66
2024/04/16 07:51:49;;;;;;;3.37;1.67;;;8.40;76.80;;;;;;6782333;26;20459;-66
2024/04/16 07:54:51;;;;;;;4.53;2.17;;;8.30;76.10;;;;;;6778731;26;20499;-64
2024/04/16 07:57:53;;;;;;;5.67;2.07;;;8.30;77.00;;;;;;6777407;26;20487;-65
2024/04/16 08:00:54;;;;;;;2.10;1.50;;;8.40;77.20;;;;;;6778272;26;20463;-65
2024/04/16 08:03:56;;;;;;;5.40;2.03;;;8.50;77.20;;;;;;6776742;26;20642;-65
2024/04/16 08:06:58;;;;;;;4.70;2.23;;;8.30;76.20;;;;;;6776561;26;20504;-65
2024/04/16 08:10:03;;;;;;;4.70;2.60;;;8.30;77.10;;;;;;6776409;26;20536;-64
2024/04/16 08:13:05;;;;;;;6.60;2.63;;;8.30;77.30;;;;;;6775880;26;20497;-64
2024/04/16 08:16:07;;;;;;;4.63;2.30;;;8.20;77.40;;;;;;6776421;26;20507;-66
2024/04/16 08:19:09;;;;;;;3.63;2.60;;;8.10;77.30;;;;;;6777020;26;20947;-66
2024/04/16 08:22:13;;;;;;;3.97;2.70;;;8.10;77.00;;;;;;6777359;26;20459;-65
2024/04/16 08:25:15;;;;;;;5.13;2.10;;;8.10;77.50;;;;;;6774662;26;20456;-65
2024/04/16 08:28:16;;;;;;;2.93;2.60;;;8.10;77.30;;;;;;6777174;26;20507;-65
2024/04/16 08:31:18;;;;;;;5.33;2.57;;;8.10;78.60;;;;;;6776481;26;20463;-65
2024/04/16 08:34:20;;;;;;;6.20;2.77;;;8.20;78.50;;;;;;6775611;26;20463;-67
2024/04/16 08:37:22;;;;;;;4.20;2.27;;;8.30;76.70;;;;;;6777423;26;20451;-64
2024/04/16 08:40:24;;;;;;;7.30;2.73;;;8.30;77.10;;;;;;6776600;26;20452;-66
2024/04/16 08:43:27;;;;;;;2.03;1.63;;;8.10;77.20;;;;;;6777627;26;20536;-66
2024/04/16 08:46:29;;;;;;;1.50;1.40;;;8.00;77.40;;;;;;6780548;26;20504;-65
2024/04/16 08:49:33;;;;;;;2.80;1.30;;;7.90;76.90;;;;;;6779744;26;20867;-64
2024/04/16 08:52:35;;;;;;;1.83;1.20;;;7.80;78.10;;;;;;6778920;26;20451;-65
2024/04/16 08:55:40;;;;;;;2.20;1.20;;;7.70;78.90;;;;;;6779220;26;20451;-65
2024/04/16 08:58:44;;;;;;;1.40;1.30;;;7.50;80.10;;;;;;6779000;26;20500;-66
2024/04/16 09:01:48;;;;;;;2.47;1.20;;;7.40;80.80;;;;;;6776301;26;20483;-66
2024/04/16 09:04:51;;;;;;;2.03;1.17;;;7.30;82.20;;;;;;6780266;26;20507;-66
2024/04/16 09:07:53;;;;;;;2.93;1.20;;;7.20;82.00;;;;;;6777541;26;20499;-62
2024/04/16 09:10:55;;;;;;;2.27;1.33;;;7.20;82.90;;;;;;6776162;26;20456;-62
2024/04/16 09:13:57;;;;;;;2.00;1.40;;;7.10;83.60;;;;;;6775426;26;20435;-65
2024/04/16 09:17:01;;;;;;;3.13;1.73;;;7.00;84.60;;;;;;6775543;26;21061;-65
2024/04/16 09:20:03;;;;;;;3.57;1.50;;;7.00;85.30;;;;;;6776382;26;20813;-63
2024/04/16 09:23:05;;;;;;;4.37;1.53;;;7.00;85.60;;;;;;6779820;26;20455;-62
2024/04/16 09:26:14;;;;;;;3.30;1.50;;;7.00;85.90;;;;;;6777160;26;20507;-63
2024/04/16 09:29:25;;;;;;;1.67;1.20;;;7.00;85.70;;;;;;6774781;26;20912;-64
2024/04/16 09:32:30;;;;;;;2.80;1.40;;;7.10;86.00;;;;;;6773202;26;20570;-66
2024/04/16 09:35:36;;;;;;;2.47;1.33;;;7.10;85.30;;;;;;6774153;26;20466;-63
2024/04/16 09:38:41;;;;;;;2.30;1.30;;;7.10;85.10;;;;;;6773849;26;20519;-65
2024/04/16 09:41:44;;;;;;;2.50;1.30;;;7.20;85.40;;;;;;6776105;26;20526;-62
2024/04/16 09:44:48;;;;;;;3.80;1.20;;;7.30;85.60;;;;;;6773401;26;20467;-63
2024/04/16 09:47:52;;;;;;;1.37;1.03;;;7.30;86.30;;;;;;6780584;26;20496;-63
2024/04/16 09:50:55;;;;;;;3.40;1.57;;;7.30;85.30;;;;;;6780502;26;20459;-62
2024/04/16 09:53:58;;;;;;;2.07;1.37;;;7.30;85.90;;;;;;6775144;26;20490;-62
2024/04/16 09:57:03;;;;;;;5.03;1.87;;;7.40;85.50;;;;;;6743165;26;20586;-62
2024/04/16 10:00:08;;;;;;;2.10;1.87;;;7.40;85.40;;;;;;6779190;26;20750;-62
2024/04/16 10:03:11;;;;;;;4.23;1.87;;;7.50;85.00;;;;;;6774771;26;20496;-63
2024/04/16 10:06:13;;;;;;;4.87;2.27;;;7.60;85.30;;;;;;6774605;26;20979;-62
2024/04/16 10:09:19;;;;;;;3.10;2.30;;;7.70;84.70;;;;;;6773951;26;20622;-63
2024/04/16 10:12:21;;;;;;;3.93;2.67;;;7.80;84.90;;;;;;6773459;26;20533;-64
2024/04/16 10:15:23;;;;;;;4.10;2.53;;;7.80;84.10;;;;;;6774547;26;20455;-65
2024/04/16 10:18:28;;;;;;;5.27;3.10;;;7.90;84.80;;;;;;6772467;26;20767;-65
2024/04/16 10:21:37;;;;;;;1.80;1.70;;;7.90;84.60;;;;;;6775029;26;20468;-65
2024/04/16 10:24:53;;;;;;;2.60;2.20;;;8.00;82.50;;;;;;6773714;26;20489;-65
2024/04/16 10:27:58;;;;;;;2.30;1.90;;;8.00;83.60;;;;;;6775086;26;20511;-65
2024/04/16 10:31:09;;;;;;;1.77;1.50;;;8.10;83.20;;;;;;6774549;26;20452;-65
2024/04/16 10:34:22;;;;;;;2.03;1.43;;;8.10;82.10;;;;;;6774749;26;20982;-63
2024/04/16 10:37:24;;;;;;;1.33;1.00;;;8.20;80.80;;;;;;6775644;26;20947;-66
2024/04/16 10:40:28;;;;;;;1.27;1.10;;;8.30;79.20;;;;;;6775719;26;20463;-65
2024/04/16 10:43:37;;;;;;;1.47;1.10;;;8.30;80.10;;;;;;6771679;26;20471;-64
2024/04/16 10:46:39;;;;;;;5.30;1.30;;;8.50;79.80;;;;;;6773656;26;20519;-65
2024/04/16 10:49:43;;;;;;;3.47;1.60;;;8.60;78.70;;;;;;6774795;26;21033;-66
2024/04/16 10:52:46;;;;;;;1.97;1.10;;;8.80;78.40;;;;;;6778924;26;20987;-63
2024/04/16 10:55:49;;;;;;;2.20;1.10;;;9.00;77.90;;;;;;6779149;26;20459;-64
2024/04/16 10:58:51;;;;;;;2.30;1.20;;;9.00;78.30;;;;;;6777963;26;20455;-62
2024/04/16 11:01:53;;;;;;;1.93;1.00;;;9.10;77.70;;;;;;6778545;26;20451;-63
2024/04/16 11:04:55;;;;;;;1.03;0.90;;;9.00;77.70;;;;;;6778131;26;20630;-65
2024/04/16 11:07:57;;;;;;;1.37;1.00;;;9.10;75.50;;;;;;6778061;26;20459;-65
2024/04/16 11:10:59;;;;;;;1.50;0.90;;;9.20;75.20;;;;;;6778009;26;20527;-64
2024/04/16 11:14:01;;;;;;;2.03;1.00;;;9.40;74.40;;;;;;6777339;26;20502;-64
2024/04/16 11:17:04;;;;;;;1.23;0.80;;;9.60;74.20;;;;;;6782580;26;20447;-64
2024/04/16 11:20:08;;;;;;;1.77;1.17;;;9.80;73.80;;;;;;6777930;26;20463;-65
2024/04/16 11:23:10;;;;;;;4.30;1.27;;;10.00;72.40;;;;;;6777322;26;20463;-65
2024/04/16 11:26:13;;;;;;;1.20;0.77;;;10.20;72.60;;;;;;6777732;26;20440;-64
2024/04/16 11:29:18;;;;;;;2.93;1.13;;;10.30;73.20;;;;;;6777728;26;20978;-63
2024/04/16 11:32:21;;;;;;;2.00;1.03;;;10.60;71.40;;;;;;6777078;26;20440;-63
2024/04/16 11:35:24;;;;;;;2.00;0.80;;;10.60;72.60;;;;;;6776048;26;20515;-65
2024/04/16 11:38:26;;;;;;;1.33;1.00;;;10.50;71.30;;;;;;6777211;26;20786;-64
2024/04/16 11:41:31;;;;;;;4.70;0.90;;;10.60;71.40;;;;;;6777376;26;20448;-62
2024/04/16 11:44:37;;;;;;;1.67;0.90;;;10.60;69.50;;;;;;6777269;26;20547;-64
2024/04/16 11:47:39;;;;;;;1.63;1.00;;;10.70;69.00;;;;;;6777721;26;20452;-68
2024/04/16 11:50:41;;;;;;;1.60;1.00;;;10.80;69.40;;;;;;6777503;26;20539;-64
2024/04/16 11:53:44;;;;;;;3.43;1.03;;;10.90;69.00;;;;;;6776743;26;20449;-63
2024/04/16 11:56:46;;;;;;;1.37;1.13;;;11.10;69.30;;;;;;6777165;26;20527;-63
2024/04/16 11:59:47;;;;;;;3.30;0.90;;;11.50;68.00;;;;;;6775341;26;20455;-65
2024/04/16 12:02:49;;;;;;;1.93;0.90;;;11.60;65.90;;;;;;6775029;26;20523;-68
2024/04/16 12:05:51;;;;;;;3.80;1.10;;;11.30;65.00;;;;;;6777515;26;20526;-66
2024/04/16 12:08:53;;;;;;;1.50;1.40;;;11.20;66.90;;;;;;6775370;26;20530;-67
2024/04/16 12:11:55;;;;;;;1.17;0.90;;;11.10;67.20;;;;;;6776990;26;20459;-65
2024/04/16 12:14:56;;;;;;;2.33;1.10;;;11.10;65.60;;;;;;6776595;26;20499;-65
2024/04/16 12:17:58;;;;;;;1.00;0.80;;;11.30;66.40;;;;;;6776715;26;20455;-63
2024/04/16 12:21:00;;;;;;;2.00;1.00;;;11.50;65.40;;;;;;6777248;26;20448;-66
2024/04/16 12:24:03;;;;;;;1.20;1.00;;;11.50;64.60;;;;;;6782987;26;20757;-65
2024/04/16 12:27:05;;;;;;;1.70;1.00;;;11.50;65.40;;;;;;6778622;26;20503;-65
2024/04/16 12:30:07;;;;;;;1.20;1.03;;;11.60;65.20;;;;;;6776952;26;20573;-65
2024/04/16 12:33:09;;;;;;;1.10;1.00;;;11.50;63.50;;;;;;6777063;26;20507;-64
2024/04/16 12:36:17;;;;;;;1.33;1.00;;;11.60;64.20;;;;;;6777721;26;20554;-66
2024/04/16 12:39:19;;;;;;;1.57;0.90;;;11.60;65.00;;;;;;6777623;26;20519;-65
2024/04/16 12:42:21;;;;;;;1.77;1.00;;;11.70;64.70;;;;;;6781192;26;20489;-66
2024/04/16 12:45:22;;;;;;;4.80;0.90;;;11.60;65.50;;;;;;6785563;26;20462;-65
2024/04/16 12:48:27;;;;;;;1.87;0.90;;;11.50;62.90;;;;;;6782427;26;20455;-65
2024/04/16 12:51:29;;;;;;;2.87;0.90;;;11.60;63.10;;;;;;6776147;26;20488;-64
2024/04/16 12:54:33;;;;;;;2.10;1.20;;;11.90;64.60;;;;;;6774728;26;20518;-66
2024/04/16 12:57:35;;;;;;;1.73;0.90;;;11.80;63.10;;;;;;6774249;26;20590;-63
2024/04/16 13:00:37;;;;;;;1.93;1.03;;;11.80;61.80;;;;;;6773330;26;20526;-65
2024/04/16 13:03:39;;;;;;;1.33;0.93;;;11.70;63.60;;;;;;6774790;26;20927;-66
2024/04/16 13:06:40;;;;;;;1.10;1.00;;;11.60;64.50;;;;;;6775106;26;20506;-65
2024/04/16 13:09:42;;;;;;;0.90;0.90;;;11.60;64.00;;;;;;6774707;26;20451;-63
2024/04/16 13:12:44;;;;;;;0.93;0.90;;;11.70;63.20;;;;;;6773926;26;20463;-67
2024/04/16 13:15:46;;;;;;;1.90;1.13;;;11.70;63.60;;;;;;6773700;26;20554;-67
2024/04/16 13:18:48;;;;;;;2.00;1.10;;;11.80;61.70;;;;;;6774649;26;20496;-64
2024/04/16 13:21:50;;;;;;;1.10;1.00;;;12.00;60.30;;;;;;6775072;26;20443;-65
2024/04/16 13:24:52;;;;;;;1.33;1.00;;;12.10;60.20;;;;;;6774905;26;21032;-66
2024/04/16 13:27:54;;;;;;;1.23;1.13;;;12.40;60.60;;;;;;6774891;26;20760;-64
2024/04/16 13:30:56;;;;;;;1.87;1.00;;;12.20;59.80;;;;;;6774975;26;20610;-64
2024/04/16 13:33:58;;;;;;;3.17;1.17;;;12.20;60.00;;;;;;6781853;26;20460;-66
2024/04/16 13:37:00;;;;;;;1.47;1.00;;;12.20;61.80;;;;;;6782702;26;20448;-65
2024/04/16 13:40:02;;;;;;;0.90;0.80;;;12.20;60.10;;;;;;6788146;26;20495;-65
2024/04/16 13:43:04;;;;;;;1.20;0.87;;;12.20;61.00;;;;;;6787104;26;20459;-66
2024/04/16 13:46:06;;;;;;;3.60;1.23;;;12.20;61.70;;;;;;6784631;26;20534;-65
2024/04/16 13:49:08;;;;;;;2.80;1.07;;;12.10;62.10;;;;;;6780844;26;20451;-66
2024/04/16 13:52:10;;;;;;;1.10;1.00;;;11.90;61.60;;;;;;6783801;26;20507;-66
2024/04/16 13:55:12;;;;;;;1.10;1.00;;;11.80;61.60;;;;;;6773145;26;20577;-67
2024/04/16 13:58:16;;;;;;;3.23;1.20;;;11.60;61.90;;;;;;6773389;26;20570;-66
2024/04/16 14:01:19;;;;;;;6.50;1.30;;;11.70;62.50;;;;;;6773185;26;20519;-66
2024/04/16 14:04:21;;;;;;;2.37;1.40;;;11.80;62.20;;;;;;6773975;26;20448;-68
2024/04/16 14:07:23;;;;;;;0.90;0.90;;;11.80;61.20;;;;;;6772188;26;20463;-65
2024/04/16 14:10:24;;;;;;;4.23;1.23;;;12.00;60.30;;;;;;6774060;26;20501;-65
2024/04/16 14:13:26;;;;;;;2.70;1.00;;;12.10;61.40;;;;;;6771459;26;20500;-66
2024/04/16 14:16:28;;;;;;;2.50;1.00;;;12.20;60.50;;;;;;6773549;26;20495;-66
2024/04/16 14:19:30;;;;;;;1.13;1.07;;;12.10;61.60;;;;;;6771718;26;20464;-66
2024/04/16 14:22:32;;;;;;;1.80;1.00;;;12.20;59.50;;;;;;6771976;26;20778;-66
2024/04/16 14:25:34;;;;;;;1.10;1.00;;;12.20;59.90;;;;;;6776247;26;20527;-66
2024/04/16 14:28:36;;;;;;;0.90;0.90;;;12.10;59.30;;;;;;6778039;26;20491;-66
2024/04/16 14:31:38;;;;;;;1.77;1.10;;;12.10;59.40;;;;;;6778002;26;20562;-66
2024/04/16 14:34:41;;;;;;;1.07;0.97;;;12.10;59.80;;;;;;6778633;26;20867;-66
2024/04/16 14:37:43;;;;;;;0.97;0.97;;;11.90;59.80;;;;;;6778052;26;20532;-65
2024/04/16 14:40:45;;;;;;;1.77;1.30;;;11.90;60.90;;;;;;6778273;26;20443;-64
2024/04/16 14:43:47;;;;;;;1.20;1.10;;;12.00;60.90;;;;;;6778417;26;20775;-65
2024/04/16 14:46:52;;;;;;;1.07;0.97;;;11.90;61.80;;;;;;6778472;26;20444;-65
2024/04/16 14:49:54;;;;;;;1.20;0.93;;;11.80;62.10;;;;;;6782734;26;20837;-65
2024/04/16 14:52:56;;;;;;;6.30;1.20;;;11.90;61.90;;;;;;6779122;26;20777;-64
2024/04/16 14:55:59;;;;;;;1.30;1.20;;;11.80;61.90;;;;;;6778807;26;20537;-65
2024/04/16 14:59:02;;;;;;;1.43;1.20;;;11.80;61.60;;;;;;6778589;26;20455;-65
2024/04/16 15:02:03;;;;;;;1.30;1.07;;;11.90;61.60;;;;;;6777965;26;20451;-67
2024/04/16 15:05:05;;;;;;;1.20;1.10;;;12.00;61.30;;;;;;6778542;26;20522;-67
2024/04/16 15:08:08;;;;;;;1.20;1.00;;;12.10;61.10;;;;;;6778482;26;20455;-66
2024/04/16 15:11:09;;;;;;;4.83;1.70;;;12.10;61.30;;;;;;6780948;26;20544;-66
2024/04/16 15:14:11;;;;;;;4.00;1.17;;;12.00;60.80;;;;;;6777916;26;20499;-66
2024/04/16 15:17:13;;;;;;;1.43;1.27;;;12.10;61.00;;;;;;6779140;26;20511;-66
2024/04/16 15:20:15;;;;;;;1.33;1.23;;;12.00;60.50;;;;;;6782113;26;20503;-66
2024/04/16 15:23:17;;;;;;;1.40;1.00;;;12.00;60.70;;;;;;6780728;26;20915;-66
2024/04/16 15:26:19;;;;;;;1.10;1.00;;;11.90;61.20;;;;;;6778053;26;20443;-67
2024/04/16 15:29:20;;;;;;;1.10;1.10;;;11.90;62.30;;;;;;6777466;26;20980;-67
2024/04/16 15:32:22;;;;;;;1.07;1.03;;;11.80;62.40;;;;;;6777850;26;20463;-66
2024/04/16 15:35:24;;;;;;;0.97;0.97;;;11.70;62.90;;;;;;6778022;26;20444;-67
2024/04/16 15:38:26;;;;;;;1.13;1.03;;;11.60;63.20;;;;;;6776335;26;20455;-67
2024/04/16 15:41:28;;;;;;;1.83;1.00;;;11.60;63.60;;;;;;6778377;26;20444;-66
2024/04/16 15:44:33;;;;;;;1.67;1.03;;;11.60;63.30;;;;;;6777684;26;20542;-66
2024/04/16 15:47:35;;;;;;;1.63;0.97;;;11.60;62.80;;;;;;6777188;26;20526;-67
2024/04/16 15:50:37;;;;;;;1.10;1.00;;;11.60;62.60;;;;;;6776856;26;20511;-66
2024/04/16 15:53:39;;;;;;;2.30;1.10;;;11.60;62.80;;;;;;6775274;26;20515;-67
2024/04/16 15:56:42;;;;;;;2.10;1.10;;;11.50;62.50;;;;;;6781566;26;20472;-67